New Nada — 3ELP9 — position and weather

sailwx.info

Track history (hours):
 
Tides and Currents Weather Stations Pressure Air Temp Water Temp Dewpoint Dewpoint Depression Visibility Wind Speed Wind Dir Waves Ship Positions

New Nada

Last reported at 2016-Aug-06 11:21 UTC. Time now 2016-Aug-24 10:15 UTC.
Position N 29°46' E 122°17'.
Warning: this ship's position is 17 days out of date.

Length 180 m; beam 32.2 m.

Type: Cargo ship. MMSI: 356005000.

Date/timePositionNaut miles runAvg speedWind from/ knotsBaromVisibWave heightAir tempDewpointWater temp
2016-Aug-06 11:21N 29°46' E 122°17'7 8.7
2016-Aug-06 10:32N 29°50' E 122°11'1 0.7
2016-Aug-06 09:23N 29°49' E 122°10'1 0.0
2016-Aug-05 12:31N 29°48' E 122°10'0 0.0
2016-Aug-05 07:28N 29°48' E 122°10'0 0.0
2016-Aug-04 21:13N 29°48' E 122°10'0 0.0
2016-Aug-04 20:28N 29°48' E 122°10'0 0.0
2016-Aug-04 18:31N 29°48' E 122°10'0 0.0
2016-Aug-03 23:19N 29°48' E 122°10'0 0.0
2016-Aug-03 22:13N 29°48' E 122°10'0 0.0
2016-Aug-03 21:31N 29°48' E 122°10'0 0.0
2016-Aug-03 17:13N 29°48' E 122°10'0 0.0
2016-Aug-03 12:04N 29°48' E 122°10'0 0.0
2016-Aug-03 07:22N 29°48' E 122°10'0 0.0
2016-Aug-02 18:31N 29°48' E 122°10'0 0.0
2016-Aug-02 08:28N 29°48' E 122°10'0 0.0
2016-Aug-02 06:22N 29°48' E 122°10'0 0.0
2016-Aug-01 23:31N 29°48' E 122°10'0 0.0
2016-Aug-01 21:31N 29°48' E 122°10'0 0.0
2016-Aug-01 15:31N 29°48' E 122°10'0 0.0
2016-Aug-01 13:19N 29°48' E 122°10'0 0.0
2016-Aug-01 12:31N 29°48' E 122°10'0 0.0
2016-Aug-01 11:31N 29°48' E 122°10'0 0.0
2016-Aug-01 07:25N 29°48' E 122°10'0 0.0
2016-Jul-31 22:22N 29°48' E 122°10'0 0.0
2016-Jul-31 17:19N 29°48' E 122°10'0 0.0
2016-Jul-31 12:25N 29°48' E 122°10'0 0.0
2016-Jul-31 11:33N 29°48' E 122°10'1 0.3
2016-Jul-31 09:32N 29°49' E 122°10'0 0.0
2016-Jul-31 07:32N 29°49' E 122°10'0 0.0
2016-Jul-31 05:23N 29°49' E 122°10'2 2.1
2016-Jul-31 04:33N 29°50' E 122°11'1110.5
2016-Jul-31 03:33N 29°44' E 122°21'1514.6
2016-Jul-31 02:31N 29°41' E 122°38'  
Track history (hours):
 
Tides and Currents Weather Stations Pressure Air Temp Water Temp Dewpoint Dewpoint Depression Visibility Wind Speed Wind Dir Waves Ship Positions

New Nada

Last reported at 2016-Aug-06 11:21 UTC. Time now 2016-Aug-24 10:15 UTC.
Position N 29°46' E 122°17'.
Warning: this ship's position is 17 days out of date.

Length 180 m; beam 32.2 m.

Type: Cargo ship. MMSI: 356005000.

Date/timePositionNaut miles runAvg speedWind from/ knotsBaromVisibWave heightAir tempDewpointWater temp
2016-Aug-06 11:21N 29°46' E 122°17'7 8.7
2016-Aug-06 10:32N 29°50' E 122°11'1 0.7
2016-Aug-06 09:23N 29°49' E 122°10'1 0.0
2016-Aug-05 12:31N 29°48' E 122°10'0 0.0
2016-Aug-05 07:28N 29°48' E 122°10'0 0.0
2016-Aug-04 21:13N 29°48' E 122°10'0 0.0
2016-Aug-04 20:28N 29°48' E 122°10'0 0.0
2016-Aug-04 18:31N 29°48' E 122°10'0 0.0
2016-Aug-03 23:19N 29°48' E 122°10'0 0.0
2016-Aug-03 22:13N 29°48' E 122°10'0 0.0
2016-Aug-03 21:31N 29°48' E 122°10'0 0.0
2016-Aug-03 17:13N 29°48' E 122°10'0 0.0
2016-Aug-03 12:04N 29°48' E 122°10'0 0.0
2016-Aug-03 07:22N 29°48' E 122°10'0 0.0
2016-Aug-02 18:31N 29°48' E 122°10'0 0.0
2016-Aug-02 08:28N 29°48' E 122°10'0 0.0
2016-Aug-02 06:22N 29°48' E 122°10'0 0.0
2016-Aug-01 23:31N 29°48' E 122°10'0 0.0
2016-Aug-01 21:31N 29°48' E 122°10'0 0.0
2016-Aug-01 15:31N 29°48' E 122°10'0 0.0
2016-Aug-01 13:19N 29°48' E 122°10'0 0.0
2016-Aug-01 12:31N 29°48' E 122°10'0 0.0
2016-Aug-01 11:31N 29°48' E 122°10'0 0.0
2016-Aug-01 07:25N 29°48' E 122°10'0 0.0
2016-Jul-31 22:22N 29°48' E 122°10'0 0.0
2016-Jul-31 17:19N 29°48' E 122°10'0 0.0
2016-Jul-31 12:25N 29°48' E 122°10'0 0.0
2016-Jul-31 11:33N 29°48' E 122°10'1 0.3
2016-Jul-31 09:32N 29°49' E 122°10'0 0.0
2016-Jul-31 07:32N 29°49' E 122°10'0 0.0
2016-Jul-31 05:23N 29°49' E 122°10'2 2.1
2016-Jul-31 04:33N 29°50' E 122°11'1110.5
2016-Jul-31 03:33N 29°44' E 122°21'1514.6
2016-Jul-31 02:31N 29°41' E 122°38'  

Dump ship's entire track history